Ana Sayfa
METAR-TAF:

METAR-TAF

Havaalanları :

Sakız Adası, Yunanistan

Enlem: 38-20N, Boylam: 026-08E, yükseklik: 5 m

Güncel hava durumu gözlemi

Rapor saat 07:50 UTC de 1 saat ve 6 dakika önce yapıldı.
Rüzgar kuzey/kuzeydoğudan 12 kt
Sıcaklık 28°C
Nem 62%
Basınç 1011 hPa
Görüş mesafesi 10 km veya daha fazla
1500 m altında bulut yok ve kümülonimbus yok

METAR: LGHI 260750Z 02012KT CAVOK 28/20 Q1011

Saat: 11:56 (08:56 UTC)

Tahmin

Rapor saat 08:00 UTC de 56 dakika önce yapıldı.
Ayın 26'si saat 09 UTC'den ayın 26'si saat 18 UTC'ye kadar geçerli Tahmin
Rüzgar kuzeydan 12 kt
Görüş mesafesi 10 km veya daha fazla
2500 ft yükseklikte az bulutlu
Geçici
ayın 26'si saat 09 UTC'den ayın 26'si saat 18 UTC'ye kadar
Rüzgar kuzeydan 12 kt ve 22 kt'a kadar ani rüzgarlar

TAF: LGHI 260800Z 2609/2618 01012KT 9999 FEW025 TEMPO 2609/2618 01012G22KT

4.000'den fazla havaalanı için hava durumu gözlemleri ve tahminleri (METAR ve TAF raporları).

Kullanılabilir istasyonlar harita üzerinde sarı ve kırmızı noktalarla gösterilir.

İstasyonun adını görmek için fareyi noktanın üzerinde gezdirin.

Sonrasında hava gözlem ve tahminlerini görmek için tıklayın.

Haritayı değiştirmek için: yaklaştırmak için siyah artı işaretli yeşil düğmeye ve uzaklaştırmak için de eksi işaretli düğmeye hızla tıklayın; bitişik haritalar için yeşil okları kullanın.


METAR-TAF: